createdAt,value
2022-11-26T00:01:52.808Z,10.00
2022-11-26T00:04:20.107Z,7.88
2022-11-26T00:06:53.747Z,9.45
2022-11-26T00:09:25.156Z,8.73
2022-11-26T00:11:58.967Z,13.20
2022-11-26T00:14:26.088Z,8.52
2022-11-26T00:17:06.886Z,7.70
2022-11-26T00:19:33.981Z,10.45
2022-11-26T00:22:01.287Z,10.50
2022-11-26T00:24:36.019Z,9.88
2022-11-26T00:27:03.562Z,9.38
2022-11-26T00:29:36.768Z,12.38
2022-11-26T00:32:04.022Z,10.82
2022-11-26T00:34:37.937Z,9.45
2022-11-26T00:37:05.394Z,8.38
2022-11-26T00:39:38.748Z,9.05
2022-11-26T00:42:05.876Z,9.82
2022-11-26T00:44:39.979Z,8.45
2022-11-26T00:47:07.475Z,10.48
2022-11-26T00:49:40.746Z,11.00
2022-11-26T00:52:24.843Z,8.20
2022-11-26T00:54:58.892Z,10.65
2022-11-26T00:57:26.114Z,10.35
2022-11-26T00:59:53.340Z,10.45
2022-11-26T01:02:26.964Z,6.10
2022-11-26T01:04:54.341Z,7.70
2022-11-26T01:07:27.828Z,9.73
2022-11-26T01:09:54.962Z,10.20
2022-11-26T01:12:22.143Z,7.35
2022-11-26T01:14:55.779Z,7.80
2022-11-26T01:17:29.734Z,6.78
2022-11-26T01:20:03.755Z,9.98
2022-11-26T01:22:30.954Z,7.65
2022-11-26T01:25:04.892Z,8.32
2022-11-26T01:27:32.096Z,9.15
2022-11-26T01:29:59.352Z,10.60
2022-11-26T01:32:32.818Z,8.65
2022-11-26T01:34:59.923Z,7.25
2022-11-26T01:37:33.876Z,7.40
2022-11-26T01:40:01.197Z,8.57
2022-11-26T01:42:46.777Z,7.30
2022-11-26T01:45:21.964Z,7.57
2022-11-26T01:47:56.750Z,6.55
2022-11-26T01:50:29.782Z,6.82
2022-11-26T01:53:23.786Z,9.63
2022-11-26T01:55:52.449Z,7.65
2022-11-26T01:58:21.246Z,7.40
2022-11-26T02:00:55.825Z,7.75
2022-11-26T02:03:23.492Z,8.27
2022-11-26T02:08:25.516Z,9.15
2022-11-26T02:10:53.127Z,7.85
2022-11-26T02:16:17.737Z,5.93
2022-11-26T02:18:56.782Z,7.88
2022-11-26T02:21:27.981Z,5.35
2022-11-26T02:24:12.785Z,5.00
2022-11-26T02:26:58.611Z,9.13
2022-11-26T02:29:50.750Z,6.53
2022-11-26T02:32:20.903Z,8.82
2022-11-26T02:34:54.876Z,5.90
2022-11-26T02:37:30.941Z,7.18
2022-11-26T02:40:04.830Z,9.90
2022-11-26T02:42:33.114Z,8.60
2022-11-26T02:45:09.899Z,8.27
2022-11-26T02:47:39.176Z,7.82
2022-11-26T02:50:15.866Z,7.43
2022-11-26T02:52:43.127Z,8.50
2022-11-26T02:55:18.794Z,7.45
2022-11-26T02:57:49.203Z,7.78
2022-11-26T03:00:23.912Z,6.50
2022-11-26T03:03:02.466Z,7.10
2022-11-26T03:05:38.905Z,7.00
2022-11-26T03:08:09.298Z,7.20
2022-11-26T03:10:36.417Z,8.73
2022-11-26T03:13:09.875Z,7.93
2022-11-26T03:15:57.757Z,7.28
2022-11-26T03:18:31.847Z,5.43
2022-11-26T03:20:59.109Z,8.07
2022-11-26T03:23:26.206Z,6.10
2022-11-26T03:25:59.766Z,8.80
2022-11-26T03:28:27.047Z,9.32
2022-11-26T03:31:00.829Z,7.95
2022-11-26T03:33:27.986Z,8.15
2022-11-26T03:35:55.202Z,6.55
2022-11-26T03:38:28.812Z,6.93
2022-11-26T03:40:57.083Z,7.82
2022-11-26T03:43:30.923Z,8.23
2022-11-26T03:45:58.391Z,6.38
2022-11-26T03:48:25.597Z,7.57
2022-11-26T03:50:58.805Z,7.85
2022-11-26T03:53:25.934Z,5.38
2022-11-26T03:55:59.918Z,9.00
2022-11-26T03:58:27.142Z,9.18
2022-11-26T04:00:54.430Z,7.20
2022-11-26T04:03:30.942Z,7.90
2022-11-26T04:05:58.187Z,5.85
2022-11-26T04:08:32.015Z,7.10
2022-11-26T04:10:59.211Z,6.82
2022-11-26T04:13:26.313Z,6.45
2022-11-26T04:15:59.790Z,6.65
2022-11-26T04:18:33.744Z,6.15
2022-11-26T04:21:07.885Z,5.70
2022-11-26T04:23:35.331Z,6.70
2022-11-26T04:26:08.929Z,5.90
2022-11-26T04:28:36.235Z,6.43
2022-11-26T04:31:03.369Z,5.53
2022-11-26T04:33:36.811Z,6.10
2022-11-26T04:36:04.026Z,6.60
2022-11-26T04:38:37.810Z,6.93
2022-11-26T04:41:05.081Z,7.90
2022-11-26T04:43:32.233Z,6.47
2022-11-26T04:46:05.848Z,5.65
2022-11-26T04:48:33.133Z,7.03
2022-11-26T04:51:07.155Z,6.03
2022-11-26T04:53:34.429Z,5.30
2022-11-26T04:56:01.743Z,6.03
2022-11-26T04:58:35.785Z,10.30
2022-11-26T05:01:03.066Z,7.20
2022-11-26T05:03:36.910Z,5.55
2022-11-26T05:06:04.333Z,6.82
2022-11-26T05:08:31.454Z,6.65
2022-11-26T05:11:07.820Z,6.35
2022-11-26T05:13:35.708Z,7.75
2022-11-26T05:16:09.871Z,6.57
2022-11-26T05:18:43.816Z,5.22
2022-11-26T05:21:17.959Z,5.90
2022-11-26T05:23:45.135Z,6.72
2022-11-26T05:26:12.274Z,5.50
2022-11-26T05:28:45.845Z,7.63
2022-11-26T05:31:13.145Z,6.90
2022-11-26T05:33:47.008Z,6.85
2022-11-26T05:36:14.343Z,7.15
2022-11-26T05:38:41.585Z,7.18
2022-11-26T05:41:15.894Z,7.30
2022-11-26T05:43:43.262Z,5.68
2022-11-26T05:46:16.989Z,7.13
2022-11-26T05:48:44.255Z,8.10
2022-11-26T05:51:11.675Z,6.45
2022-11-26T05:53:45.846Z,9.95
2022-11-26T05:56:13.006Z,7.50
2022-11-26T05:58:46.959Z,7.18
2022-11-26T06:01:14.217Z,7.43
2022-11-26T06:03:41.556Z,6.68
2022-11-26T06:06:15.827Z,6.85
2022-11-26T06:08:43.066Z,8.35
2022-11-26T06:11:19.834Z,7.60
2022-11-26T06:13:47.088Z,10.60
2022-11-26T06:16:33.941Z,6.32
2022-11-26T06:19:01.252Z,6.40
2022-11-26T06:21:28.354Z,6.95
2022-11-26T06:24:01.990Z,7.88
2022-11-26T06:26:29.256Z,7.55
2022-11-26T06:28:56.359Z,6.90
2022-11-26T06:31:29.987Z,8.15
2022-11-26T06:33:57.482Z,8.13
2022-11-26T06:36:25.066Z,7.95
2022-11-26T06:41:26.248Z,7.93
2022-11-26T06:44:00.053Z,11.48
2022-11-26T06:46:27.250Z,8.80
2022-11-26T06:48:54.402Z,9.68
2022-11-26T06:51:28.797Z,8.77
2022-11-26T06:53:56.050Z,7.90
2022-11-26T06:56:29.954Z,7.07
2022-11-26T06:58:57.186Z,8.43
2022-11-26T07:01:26.045Z,9.45
2022-11-26T07:04:00.815Z,8.73
2022-11-26T07:06:28.989Z,9.70
2022-11-26T07:09:04.446Z,8.32
2022-11-26T07:11:31.701Z,9.75
2022-11-26T07:13:58.847Z,8.57
2022-11-26T07:16:32.883Z,9.57
2022-11-26T07:19:02.903Z,9.45
2022-11-26T07:21:36.949Z,14.52
2022-11-26T07:24:04.273Z,11.05
2022-11-26T07:26:31.399Z,9.77
2022-11-26T07:29:04.909Z,14.95
2022-11-26T07:31:32.154Z,9.15
2022-11-26T07:34:05.887Z,11.38
2022-11-26T07:36:33.109Z,10.43
2022-11-26T07:39:01.476Z,8.60
2022-11-26T07:41:35.855Z,12.38
2022-11-26T07:44:03.089Z,6.88
2022-11-26T07:46:37.031Z,9.60
2022-11-26T07:49:04.234Z,8.65
2022-11-26T07:51:32.055Z,9.50
2022-11-26T07:54:07.017Z,11.25
2022-11-26T07:56:34.376Z,11.68
2022-11-26T07:59:02.118Z,10.23
2022-11-26T08:01:36.939Z,11.63
2022-11-26T08:04:05.292Z,10.00
2022-11-26T08:06:39.988Z,14.32
2022-11-26T08:09:07.693Z,11.27
2022-11-26T08:11:35.062Z,12.45
2022-11-26T08:14:09.864Z,9.10
2022-11-26T08:16:56.843Z,10.02
2022-11-26T08:19:31.005Z,9.15
2022-11-26T08:21:58.205Z,9.23
2022-11-26T08:24:25.338Z,11.15
2022-11-26T08:26:58.838Z,10.15
2022-11-26T08:29:26.396Z,12.02
2022-11-26T08:34:27.386Z,13.75
2022-11-26T08:36:55.693Z,12.73
2022-11-26T08:39:29.858Z,13.77
2022-11-26T08:41:57.148Z,9.68
2022-11-26T08:44:24.255Z,10.07
2022-11-26T08:46:57.846Z,12.07
2022-11-26T08:49:31.822Z,13.48
2022-11-26T08:52:05.975Z,12.85
2022-11-26T08:54:44.694Z,13.68
2022-11-26T08:57:12.369Z,15.00
2022-11-26T08:59:39.538Z,15.38
2022-11-26T09:02:17.391Z,16.40
2022-11-26T09:04:46.307Z,17.13
2022-11-26T09:09:47.612Z,16.02
2022-11-26T09:14:49.036Z,11.77
2022-11-26T09:17:22.762Z,15.73
2022-11-26T09:19:56.992Z,13.20
2022-11-26T09:22:24.276Z,15.77
2022-11-26T09:24:51.416Z,15.43
2022-11-26T09:27:24.966Z,12.95
2022-11-26T09:29:52.219Z,11.32
2022-11-26T09:32:30.919Z,11.93
2022-11-26T09:34:59.803Z,13.18
2022-11-26T09:37:34.031Z,13.80
2022-11-26T09:40:01.406Z,11.73
2022-11-26T09:42:43.858Z,13.15
2022-11-26T09:45:35.667Z,11.75
2022-11-26T09:48:28.969Z,13.43
2022-11-26T09:51:00.637Z,12.80
2022-11-26T09:53:37.959Z,11.77
2022-11-26T09:56:06.011Z,12.98
2022-11-26T09:58:58.857Z,10.00
2022-11-26T10:01:26.047Z,14.30
2022-11-26T10:03:59.901Z,13.02
2022-11-26T10:06:45.783Z,9.25
2022-11-26T10:09:22.867Z,10.73
2022-11-26T10:11:59.332Z,10.02
2022-11-26T10:14:43.136Z,12.05
2022-11-26T10:17:35.012Z,11.82
2022-11-26T10:20:40.926Z,11.07
2022-11-26T10:23:14.153Z,10.75
2022-11-26T10:25:54.086Z,13.38
2022-11-26T10:28:28.825Z,12.82
2022-11-26T10:31:07.071Z,8.48
2022-11-26T10:33:39.398Z,9.65
2022-11-26T10:36:15.905Z,8.50
2022-11-26T10:38:43.000Z,9.80
2022-11-26T10:41:10.342Z,9.80
2022-11-26T10:43:44.042Z,12.60
2022-11-26T10:46:30.167Z,12.90
2022-11-26T10:49:23.423Z,10.30
2022-11-26T10:51:51.409Z,11.55
2022-11-26T10:54:32.982Z,11.45
2022-11-26T10:57:19.754Z,10.95
2022-11-26T10:59:58.053Z,11.02
2022-11-26T11:02:33.376Z,13.90
2022-11-26T11:05:09.903Z,13.57
2022-11-26T11:07:37.827Z,12.38
2022-11-26T11:10:11.976Z,10.57
2022-11-26T11:12:43.201Z,11.60
2022-11-26T11:15:28.880Z,11.77
2022-11-26T11:18:27.909Z,9.63
2022-11-26T11:21:07.892Z,9.85
2022-11-26T11:26:33.904Z,10.93
2022-11-26T11:29:01.033Z,15.15
2022-11-26T11:31:34.987Z,13.25
2022-11-26T11:34:20.463Z,14.05
2022-11-26T11:37:09.564Z,15.27
2022-11-26T11:39:40.392Z,14.98
2022-11-26T11:42:22.102Z,10.40
2022-11-26T11:44:50.083Z,16.88
2022-11-26T11:47:39.050Z,15.85
2022-11-26T11:50:06.150Z,14.55
2022-11-26T11:52:51.943Z,12.15
2022-11-26T11:55:19.185Z,12.95
2022-11-26T11:58:03.075Z,12.23
2022-11-26T12:00:41.722Z,16.88
2022-11-26T12:03:29.909Z,13.88
2022-11-26T12:05:59.827Z,12.55
2022-11-26T12:08:44.187Z,12.80
2022-11-26T12:11:17.094Z,16.05
2022-11-26T12:13:54.030Z,15.85
2022-11-26T12:16:23.293Z,15.73
2022-11-26T12:19:13.008Z,18.15
2022-11-26T12:21:50.842Z,15.95
2022-11-26T12:24:26.786Z,16.63
2022-11-26T12:27:01.849Z,20.95
2022-11-26T12:29:33.442Z,13.10
2022-11-26T12:32:16.863Z,18.02
2022-11-26T12:34:47.937Z,17.88
2022-11-26T12:37:33.857Z,22.55
2022-11-26T12:40:16.122Z,16.15
2022-11-26T12:43:07.856Z,18.02
2022-11-26T12:45:44.399Z,17.00
2022-11-26T12:48:25.840Z,18.10
2022-11-26T12:50:57.736Z,15.27
2022-11-26T12:53:34.834Z,15.55
2022-11-26T12:56:04.870Z,13.52
2022-11-26T12:58:50.844Z,19.08
2022-11-26T13:01:18.159Z,23.58
2022-11-26T13:03:45.323Z,19.58
2022-11-26T13:06:22.040Z,20.55
2022-11-26T13:09:04.848Z,17.58
2022-11-26T13:11:47.169Z,13.13
2022-11-26T13:14:17.185Z,16.27
2022-11-26T13:16:44.334Z,21.35
2022-11-26T13:19:29.037Z,17.83
2022-11-26T13:22:02.340Z,17.30
2022-11-26T13:24:42.838Z,17.05
2022-11-26T13:27:29.911Z,14.90
2022-11-26T13:30:03.862Z,15.52
2022-11-26T13:32:42.914Z,15.57
2022-11-26T13:35:35.871Z,17.52
2022-11-26T13:38:16.153Z,16.73
2022-11-26T13:40:59.078Z,15.93
2022-11-26T13:43:51.147Z,15.85
2022-11-26T13:46:22.524Z,17.30
2022-11-26T13:49:02.029Z,20.23
2022-11-26T13:51:39.854Z,17.35
2022-11-26T13:54:10.356Z,17.35
2022-11-26T13:56:44.910Z,13.57
2022-11-26T13:59:17.702Z,16.80
2022-11-26T14:01:51.909Z,12.95
2022-11-26T14:04:25.042Z,17.13
2022-11-26T14:07:13.912Z,14.25
2022-11-26T14:09:47.104Z,15.05
2022-11-26T14:12:53.894Z,16.75
2022-11-26T14:15:46.038Z,16.17
2022-11-26T14:18:20.859Z,17.83
2022-11-26T14:21:00.773Z,18.60
2022-11-26T14:23:49.875Z,16.00
2022-11-26T14:26:26.695Z,15.05
2022-11-26T14:29:16.878Z,17.00
2022-11-26T14:31:47.296Z,18.80
2022-11-26T14:34:31.870Z,22.58
2022-11-26T14:37:00.086Z,16.88
2022-11-26T14:39:33.844Z,17.95
2022-11-26T14:42:06.036Z,15.30
2022-11-26T14:44:41.060Z,18.35
2022-11-26T14:47:10.987Z,16.40
2022-11-26T14:49:47.871Z,15.70
2022-11-26T14:52:22.702Z,17.42
2022-11-26T14:54:58.899Z,15.75
2022-11-26T14:57:41.923Z,14.77
2022-11-26T15:00:29.015Z,18.35
2022-11-26T15:02:56.748Z,16.20
2022-11-26T15:05:28.487Z,21.38
2022-11-26T15:08:04.956Z,14.13
2022-11-26T15:10:46.947Z,12.75
2022-11-26T15:13:23.950Z,16.35
2022-11-26T15:15:52.991Z,14.65
2022-11-26T15:18:28.039Z,14.45
2022-11-26T15:20:55.533Z,15.65
2022-11-26T15:25:56.297Z,16.55
2022-11-26T15:28:36.999Z,19.75
2022-11-26T15:31:11.449Z,16.08
2022-11-26T15:33:45.962Z,15.55
2022-11-26T15:36:17.610Z,17.38
2022-11-26T15:39:09.976Z,16.58
2022-11-26T15:41:42.614Z,15.68
2022-11-26T15:44:29.181Z,18.20
2022-11-26T15:46:56.908Z,14.65
2022-11-26T15:49:41.058Z,12.70
2022-11-26T15:52:10.359Z,18.85
2022-11-26T15:55:04.564Z,13.55
2022-11-26T15:57:36.979Z,18.50
2022-11-26T16:00:09.677Z,15.38
2022-11-26T16:02:45.996Z,16.30
2022-11-26T16:05:30.218Z,23.27
2022-11-26T16:08:04.943Z,17.60
2022-11-26T16:10:35.716Z,17.10
2022-11-26T16:13:19.710Z,15.77
2022-11-26T16:15:51.833Z,15.10
2022-11-26T16:18:27.129Z,16.20
2022-11-26T16:21:04.371Z,18.30
2022-11-26T16:23:37.942Z,16.13
2022-11-26T16:26:08.179Z,21.88
2022-11-26T16:28:48.950Z,11.90
2022-11-26T16:31:23.126Z,12.13
2022-11-26T16:33:57.174Z,15.27
2022-11-26T16:36:29.074Z,15.88
2022-11-26T16:39:04.227Z,18.75
2022-11-26T16:41:31.330Z,15.55
2022-11-26T16:43:58.809Z,13.55
2022-11-26T16:49:01.257Z,20.45
2022-11-26T16:51:35.000Z,14.35
2022-11-26T16:54:02.238Z,15.10
2022-11-26T16:56:44.186Z,16.45
2022-11-26T16:59:19.115Z,19.85
2022-11-26T17:01:53.225Z,13.18
2022-11-26T17:04:20.451Z,16.25
2022-11-26T17:06:47.640Z,22.08
2022-11-26T17:09:25.952Z,20.63
2022-11-26T17:11:53.187Z,15.02
2022-11-26T17:14:27.156Z,21.30
2022-11-26T17:16:54.352Z,15.57
2022-11-26T17:19:21.487Z,15.50
2022-11-26T17:21:54.995Z,19.88
2022-11-26T17:24:24.686Z,18.23
2022-11-26T17:27:02.200Z,19.80
2022-11-26T17:29:41.065Z,21.55
2022-11-26T17:32:27.110Z,22.50
2022-11-26T17:34:54.762Z,15.52
2022-11-26T17:37:26.173Z,22.00
2022-11-26T17:39:59.977Z,17.67
2022-11-26T17:42:29.115Z,17.60
2022-11-26T17:45:06.054Z,17.27
2022-11-26T17:47:33.203Z,16.48
2022-11-26T17:50:00.325Z,20.77
2022-11-26T17:52:33.975Z,16.52
2022-11-26T17:55:01.241Z,22.13
2022-11-26T17:57:35.235Z,21.30
2022-11-26T18:00:02.415Z,20.05
2022-11-26T18:02:29.558Z,22.90
2022-11-26T18:05:03.028Z,15.85
2022-11-26T18:07:30.293Z,20.23
2022-11-26T18:10:04.101Z,25.67
2022-11-26T18:12:31.371Z,23.02
2022-11-26T18:15:04.991Z,19.90
2022-11-26T18:17:32.284Z,25.90
2022-11-26T18:20:06.185Z,23.10
2022-11-26T18:22:33.362Z,29.40
2022-11-26T18:25:00.485Z,27.73
2022-11-26T18:27:37.019Z,22.52
2022-11-26T18:30:10.989Z,23.63
2022-11-26T18:32:45.135Z,22.88
2022-11-26T18:35:12.687Z,19.10
2022-11-26T18:40:17.994Z,24.48
2022-11-26T18:45:21.158Z,24.83
2022-11-26T18:47:48.394Z,29.10
2022-11-26T18:50:15.979Z,26.02
2022-11-26T18:55:17.331Z,23.23
2022-11-26T18:57:44.424Z,25.55
2022-11-26T19:00:18.091Z,27.05
2022-11-26T19:02:45.503Z,26.15
2022-11-26T19:05:19.135Z,27.83
2022-11-26T19:07:46.461Z,22.13
2022-11-26T19:10:20.105Z,30.45
2022-11-26T19:12:48.645Z,25.90
2022-11-26T19:15:15.746Z,27.98
2022-11-26T19:17:48.941Z,29.00
2022-11-26T19:20:16.217Z,33.88
2022-11-26T19:22:52.003Z,33.33
2022-11-26T19:25:19.251Z,31.23
2022-11-26T19:27:53.094Z,28.27
2022-11-26T19:30:27.033Z,37.92
2022-11-26T19:33:01.242Z,24.00
2022-11-26T19:35:28.545Z,27.08
2022-11-26T19:37:55.667Z,34.50
2022-11-26T19:40:30.012Z,36.30
2022-11-26T19:42:57.286Z,30.05
2022-11-26T19:45:31.114Z,34.75
2022-11-26T19:47:58.352Z,30.63
2022-11-26T19:50:25.453Z,28.23
2022-11-26T19:52:59.022Z,28.15
2022-11-26T19:55:26.171Z,28.85
2022-11-26T19:58:00.013Z,28.35
2022-11-26T20:00:27.192Z,24.45
2022-11-26T20:03:01.060Z,21.50
2022-11-26T20:05:28.292Z,24.05
2022-11-26T20:08:02.042Z,24.40
2022-11-26T20:10:29.292Z,23.50
2022-11-26T20:12:56.389Z,30.73
2022-11-26T20:15:30.080Z,22.60
2022-11-26T20:17:57.348Z,24.40
2022-11-26T20:20:31.009Z,25.30
2022-11-26T20:22:58.254Z,26.88
2022-11-26T20:25:25.533Z,20.08
2022-11-26T20:28:06.077Z,30.10
2022-11-26T20:30:40.046Z,25.73
2022-11-26T20:33:22.513Z,22.05
2022-11-26T20:35:50.151Z,26.30
2022-11-26T20:38:17.637Z,30.13
2022-11-26T20:43:18.310Z,24.48
2022-11-26T20:45:52.178Z,27.70
2022-11-26T20:48:20.700Z,30.13
2022-11-26T20:50:47.828Z,22.98
2022-11-26T20:53:21.033Z,24.20
2022-11-26T20:55:52.453Z,32.90
2022-11-26T20:58:26.098Z,25.67
2022-11-26T21:01:01.350Z,25.50
2022-11-26T21:03:36.392Z,22.58
2022-11-26T21:06:03.908Z,28.02
2022-11-26T21:11:05.038Z,27.40
2022-11-26T21:13:32.289Z,33.10
2022-11-26T21:16:10.805Z,36.33
2022-11-26T21:18:38.101Z,21.67
2022-11-26T21:21:09.514Z,23.13
2022-11-26T21:23:45.159Z,22.38
2022-11-26T21:26:13.619Z,29.38
2022-11-26T21:29:04.176Z,27.27
2022-11-26T21:31:32.109Z,25.98
2022-11-26T21:34:01.480Z,26.95
2022-11-26T21:36:36.021Z,22.27
2022-11-26T21:39:09.995Z,32.55
2022-11-26T21:41:37.471Z,27.38
2022-11-26T21:44:04.742Z,31.42
2022-11-26T21:46:39.202Z,24.10
2022-11-26T21:49:07.209Z,25.20
2022-11-26T21:51:41.075Z,30.15
2022-11-26T21:54:09.492Z,31.63
2022-11-26T21:56:43.079Z,25.15
2022-11-26T21:59:10.318Z,32.47
2022-11-26T22:01:45.091Z,30.52
2022-11-26T22:04:16.402Z,36.72
2022-11-26T22:06:44.399Z,27.15
2022-11-26T22:09:19.064Z,28.88
2022-11-26T22:11:46.611Z,27.83
2022-11-26T22:16:48.158Z,33.55
2022-11-26T22:19:22.085Z,34.53
2022-11-26T22:21:49.251Z,36.47
2022-11-26T22:24:24.078Z,33.28
2022-11-26T22:26:51.442Z,39.65
2022-11-26T22:29:32.207Z,41.15
2022-11-26T22:31:59.344Z,41.17
2022-11-26T22:34:27.835Z,34.88
2022-11-26T22:37:01.090Z,32.15
2022-11-26T22:39:28.280Z,36.45
2022-11-26T22:42:02.205Z,29.73
2022-11-26T22:44:29.353Z,30.38
2022-11-26T22:46:56.470Z,32.83
2022-11-26T22:49:30.138Z,29.98
2022-11-26T22:51:57.335Z,37.22
2022-11-26T22:54:31.116Z,31.15
2022-11-26T22:56:58.600Z,31.60
2022-11-26T23:02:04.265Z,27.73
2022-11-26T23:04:31.595Z,30.10
2022-11-26T23:07:05.043Z,33.65
2022-11-26T23:09:32.446Z,34.78
2022-11-26T23:11:59.592Z,37.20
2022-11-26T23:14:32.983Z,33.15
2022-11-26T23:17:00.257Z,32.97
2022-11-26T23:19:34.138Z,31.80
2022-11-26T23:22:01.606Z,34.95
2022-11-26T23:24:30.070Z,35.10
2022-11-26T23:27:04.175Z,27.70
2022-11-26T23:29:38.512Z,41.90
2022-11-26T23:32:18.143Z,34.33
2022-11-26T23:34:45.394Z,36.75
2022-11-26T23:37:12.539Z,33.88
2022-11-26T23:39:47.633Z,33.58
2022-11-26T23:42:14.894Z,44.90
2022-11-26T23:44:42.009Z,34.58
2022-11-26T23:47:16.265Z,33.08
2022-11-26T23:49:43.568Z,32.08
2022-11-26T23:52:17.018Z,30.40
2022-11-26T23:54:44.493Z,35.03
2022-11-26T23:59:49.067Z,24.92
